Time;durP1;ratioP1;P1;durP2;ratioP2;P2;SDS_P1;SDS_P2;PMS_P1;PMS_P2;Temp;Humidity;BMP_temperature;BMP_pressure;BME280_temperature;BME280_humidity;BME280_pressure;Samples;Min_cycle;Max_cycle;Signal;HPM_P1;HPM_P2
2022/01/18 00:00:34;;;;;;;;;82.25;65.00;;;;;5.17;81.32;103407.28;5057178;28;45428;-88
2022/01/18 00:02:59;;;;;;;;;82.25;63.75;;;;;4.81;81.01;103334.19;5057056;28;45663;-87
2022/01/18 00:05:26;;;;;;;;;80.75;64.25;;;;;4.92;80.55;103353.53;5056965;28;46828;-88
2022/01/18 00:07:51;;;;;;;;;79.50;60.50;;;;;5.20;80.86;103416.31;5057490;28;45418;-88
2022/01/18 00:10:17;;;;;;;;;81.75;63.75;;;;;4.66;80.52;103335.53;5056984;28;45311;-88
2022/01/18 00:13:06;;;;;;;;;87.75;65.50;;;;;4.50;80.01;103292.94;5057191;28;45647;-88
2022/01/18 00:15:37;;;;;;;;;85.00;65.25;;;;;4.65;79.97;103325.78;5057638;28;45454;-88
2022/01/18 00:23:16;;;;;;;;;84.75;64.25;;;;;4.80;80.54;103355.09;5077830;28;45421;-88
2022/01/18 00:25:46;;;;;;;;;85.75;65.25;;;;;4.25;79.98;103293.50;5076624;28;48529;-88
2022/01/18 00:28:11;;;;;;;;;82.50;64.50;;;;;4.83;80.59;103386.03;5076896;28;45431;-88
2022/01/18 00:35:58;;;;;;;;;78.25;62.50;;;;;4.45;80.18;103342.50;5077951;28;46147;-88
2022/01/18 00:38:33;;;;;;;;;80.50;62.00;;;;;4.44;80.71;103325.84;5077574;28;45263;-88
2022/01/18 00:40:59;;;;;;;;;79.50;62.50;;;;;4.86;80.25;103392.44;5078086;28;45335;-88
2022/01/18 00:43:25;;;;;;;;;81.75;65.00;;;;;4.37;79.88;103307.66;5078490;28;45336;-88
2022/01/18 00:45:51;;;;;;;;;80.25;61.50;;;;;4.89;80.22;103407.56;5081496;28;46884;-88
2022/01/18 00:48:17;;;;;;;;;82.25;64.75;;;;;4.35;79.82;103288.25;5078120;28;45315;-87
2022/01/18 00:50:44;;;;;;;;;86.00;65.75;;;;;4.43;79.84;103310.84;5078634;28;45361;-88
2022/01/18 00:53:13;;;;;;;;;85.00;65.00;;;;;4.48;80.03;103316.47;5077597;28;45492;-88
2022/01/18 00:55:49;;;;;;;;;78.75;63.00;;;;;4.27;79.01;103294.53;5076412;28;47373;-88
2022/01/18 00:58:15;;;;;;;;;81.50;63.00;;;;;4.80;79.95;103395.47;5076382;28;45202;-88
2022/01/18 01:00:41;;;;;;;;;77.75;61.50;;;;;4.41;79.58;103316.75;5076358;28;45327;-87
2022/01/18 01:03:06;;;;;;;;;76.50;62.25;;;;;4.57;79.51;103359.34;5076715;28;45254;-88
2022/01/18 01:05:32;;;;;;;;;76.50;59.00;;;;;4.05;79.68;103255.00;5075802;28;48428;-88
2022/01/18 01:07:57;;;;;;;;;80.50;62.50;;;;;4.46;79.40;103329.50;5076007;28;45829;-87
2022/01/18 01:10:22;;;;;;;;;82.00;63.50;;;;;4.72;79.63;103378.13;5076042;28;45427;-88
2022/01/18 01:12:48;;;;;;;;;78.50;61.25;;;;;4.31;79.34;103307.16;5076030;28;45341;-88
2022/01/18 01:15:15;;;;;;;;;80.00;62.25;;;;;3.90;79.36;103239.75;5076038;28;48206;-88
2022/01/18 01:46:38;;;;;;;;;63.33;49.67;;;;;4.91;78.76;103382.28;5076681;28;45979;-88
2022/01/18 01:49:07;;;;;;;;;61.00;48.00;;;;;4.87;79.39;103375.88;5075681;28;45229;-88
2022/01/18 01:51:33;;;;;;;;;59.00;47.75;;;;;4.54;78.96;103318.72;5075025;28;45342;-88
2022/01/18 01:54:04;;;;;;;;;62.75;48.25;;;;;4.56;79.27;103325.03;5075431;28;45542;-88
2022/01/18 01:56:34;;;;;;;;;59.75;47.00;;;;;4.56;78.59;103315.44;5074910;28;48568;-87
2022/01/18 01:59:01;;;;;;;;;59.33;45.00;;;;;4.58;78.54;103311.19;5075319;27;45697;-89
2022/01/18 02:01:27;;;;;;;;;56.33;43.00;;;;;4.04;78.28;103222.56;5075291;28;45366;-89
2022/01/18 02:03:52;;;;;;;;;49.33;42.00;;;;;5.02;79.14;103396.38;5075326;28;45689;-88
2022/01/18 02:06:19;;;;;;;;;44.00;39.00;;;;;4.64;78.41;103302.91;5076279;28;45320;-88
2022/01/18 02:08:45;;;;;;;;;50.33;41.67;;;;;4.96;78.87;103357.31;5075156;28;46471;-88
2022/01/18 02:11:11;;;;;;;;;43.00;39.67;;;;;5.20;78.54;103411.06;5075595;28;45418;-88
2022/01/18 02:13:36;;;;;;;;;43.67;39.67;;;;;5.22;78.98;103405.91;5075255;28;45186;-89
2022/01/18 02:23:59;;;;;;;;;38.00;36.67;;;;;5.01;78.74;103355.06;5079954;28;45480;-89
2022/01/18 02:26:24;;;;;;;;;32.00;30.33;;;;;4.98;79.38;103353.13;5078708;28;48096;-88
2022/01/18 02:28:50;;;;;;;;;38.33;31.67;;;;;4.64;79.81;103289.75;5078535;28;46018;-88
2022/01/18 02:31:18;;;;;;;;;38.67;32.00;;;;;4.85;79.14;103319.56;5096292;27;45603;-89
2022/01/18 02:33:43;;;;;;;;;43.00;31.33;;;;;5.11;79.49;103361.22;5096006;27;45261;-88
2022/01/18 02:36:09;;;;;;;;;38.00;32.67;;;;;4.63;79.12;103264.28;5078740;27;47089;-89
2022/01/18 02:38:35;;;;;;;;;31.00;27.00;;;;;4.61;79.56;103266.78;5079339;28;45527;-88
2022/01/18 02:41:00;;;;;;;;;40.00;36.00;;;;;5.11;79.65;103371.75;5096854;27;45514;-88
2022/01/18 02:46:11;;;;;;;;;24.67;23.33;;;;;5.25;79.79;103359.75;5080452;28;45284;-89
2022/01/18 02:48:36;;;;;;;;;28.00;28.00;;;;;4.73;80.17;103287.00;5095277;27;45952;-89
2022/01/18 02:51:03;;;;;;;;;29.00;29.00;;;;;4.72;79.87;103265.03;5096404;27;45409;-89
2022/01/18 02:53:29;;;;;;;;;35.67;29.67;;;;;4.91;79.91;103285.91;5095721;27;45585;-89
2022/01/18 02:55:56;;;;;;;;;36.00;29.00;;;;;5.38;79.62;103366.94;5102909;27;47592;-88
2022/01/18 02:58:29;;;;;;;;;24.33;20.00;;;;;5.03;79.93;103291.25;5105248;27;45343;-88
2022/01/18 03:03:29;;;;;;;;;33.00;25.33;;;;;5.05;79.83;103265.06;5089727;27;45374;-88
2022/01/18 03:05:55;;;;;;;;;28.00;27.00;;;;;4.84;79.31;103262.53;5080564;28;47351;-89
2022/01/18 03:08:21;;;;;;;;;30.00;26.33;;;;;5.12;79.67;103277.97;5079122;28;45343;-88
2022/01/18 03:10:46;;;;;;;;;20.00;18.67;;;;;5.39;79.63;103326.66;5078011;28;45639;-89
2022/01/18 03:13:12;;;;;;;;;26.00;23.00;;;;;4.95;80.04;103253.81;5078061;28;45425;-89
2022/01/18 03:15:37;;;;;;;;;29.33;24.00;;;;;5.21;79.57;103286.56;5077710;28;48276;-89
2022/01/18 03:18:04;;;;;;;;;23.33;19.00;;;;;5.44;79.53;103313.84;5077655;28;45298;-89
2022/01/18 03:20:30;;;;;;;;;18.33;16.33;;;;;5.23;79.96;103290.28;5078262;28;45302;-89
2022/01/18 03:22:56;;;;;;;;;23.00;19.67;;;;;4.64;79.77;103193.41;5077935;28;45615;-88
2022/01/18 03:25:39;;;;;;;;;31.67;21.00;;;;;5.37;79.59;103307.16;5077644;28;47298;-89
2022/01/18 03:28:07;;;;;;;;;23.00;16.67;;;;;5.52;79.55;103330.28;5077631;28;45346;-88
2022/01/18 03:30:40;;;;;;;;;24.67;19.33;;;;;5.54;79.86;103327.00;5077560;28;45491;-88
2022/01/18 03:33:08;;;;;;;;;23.33;17.67;;;;;5.11;79.56;103252.44;5077289;28;45303;-88
2022/01/18 03:35:35;;;;;;;;;26.33;20.00;;;;;5.48;79.03;103330.06;5077667;28;46653;-88
2022/01/18 03:38:01;;;;;;;;;20.67;15.67;;;;;5.02;79.57;103255.22;5077378;28;45721;-89
2022/01/18 03:40:26;;;;;;;;;11.67;9.33;;;;;4.94;79.70;103251.03;5078433;28;45213;-88
2022/01/18 03:42:54;;;;;;;;;26.33;20.67;;;;;5.35;80.07;103318.38;5077139;28;45455;-88
2022/01/18 03:45:25;;;;;;;;;21.00;20.00;;;;;4.41;80.19;103188.84;5077297;28;47947;-89
2022/01/18 03:47:51;;;;;;;;;22.33;19.00;;;;;5.06;80.54;103295.84;5076916;28;45457;-89
2022/01/18 03:50:17;;;;;;;;;26.67;21.33;;;;;4.84;80.38;103266.84;5077544;28;45397;-88
2022/01/18 03:52:46;;;;;;;;;20.33;19.00;;;;;4.32;81.06;103187.19;5077158;28;45292;-88
2022/01/18 03:55:13;;;;;;;;;26.67;19.00;;;;;5.14;81.14;103329.88;5078434;28;45708;-88
2022/01/18 03:57:38;;;;;;;;;25.67;20.33;;;;;5.07;80.80;103321.38;5070367;28;45500;-88
2022/01/18 04:00:08;;;;;;;;;28.33;19.00;;;;;4.52;80.98;103221.31;5074266;28;45348;-88
2022/01/18 04:02:33;;;;;;;;;21.00;19.33;;;;;4.61;81.36;103232.59;5073374;27;45382;-88
2022/01/18 04:05:00;;;;;;;;;23.33;18.67;;;;;4.76;80.98;103259.25;5073220;28;46998;-88
2022/01/18 04:07:25;;;;;;;;;30.33;24.00;;;;;5.23;81.21;103326.19;5056808;28;46224;-89
2022/01/18 04:09:50;;;;;;;;;23.67;18.33;;;;;4.81;81.39;103247.41;5073466;28;45567;-88
2022/01/18 04:12:16;;;;;;;;;18.33;18.00;;;;;4.38;80.53;103172.84;5073291;28;45517;-87
2022/01/18 04:14:42;;;;;;;;;27.00;21.67;;;;;4.83;81.07;103272.91;5056518;28;46835;-88
2022/01/18 04:18:04;;;;;;;;;20.67;16.67;;;;;4.52;81.18;103209.88;5056254;28;45374;-87
2022/01/18 04:30:52;;;;;;;;;28.67;21.33;;;;;4.43;80.91;103186.34;5057253;28;45434;-88
2022/01/18 04:33:17;;;;;;;;;27.67;21.33;;;;;4.93;81.37;103271.16;5073512;28;45347;-88
2022/01/18 04:35:43;;;;;;;;;30.00;27.33;;;;;4.75;81.19;103239.00;5056263;28;47246;-89
2022/01/18 04:38:08;;;;;;;;;24.00;18.00;;;;;4.62;81.56;103231.78;5073388;28;45409;-88
2022/01/18 04:40:36;;;;;;;;;36.00;20.67;;;;;4.64;81.08;103237.19;5072829;28;45372;-88
2022/01/18 04:43:07;;;;;;;;;24.67;17.33;;;;;4.25;81.68;103191.94;5073385;28;45268;-88
2022/01/18 04:48:34;;;;;;;;;23.00;19.00;;;;;4.75;82.19;103302.13;5057482;28;45297;-89
2022/01/18 04:51:03;;;;;;;;;18.00;17.00;;;;;4.80;82.46;103326.19;5073100;28;45220;-88
2022/01/18 04:53:31;;;;;;;;;23.67;18.67;;;;;4.29;82.99;103227.28;5072947;28;45356;-89
2022/01/18 04:56:01;;;;;;;;;22.67;19.67;;;;;4.62;82.99;103286.09;5056178;28;47355;-88
2022/01/18 04:58:26;;;;;;;;;30.67;22.00;;;;;4.35;83.14;103248.81;5085951;27;45355;-88
2022/01/18 05:00:55;;;;;;;;;23.33;19.33;;;;;4.78;83.55;103304.06;5076024;28;45303;-88
2022/01/18 05:03:20;;;;;;;;;27.67;19.00;;;;;4.21;83.31;103221.38;5076588;28;45592;-88
2022/01/18 05:05:48;;;;;;;;;23.67;22.00;;;;;4.00;84.06;103182.78;5075646;28;47133;-88
2022/01/18 05:08:14;;;;;;;;;30.67;23.67;;;;;4.41;83.19;103240.53;5076497;28;45833;-88
2022/01/18 05:10:41;;;;;;;;;28.33;24.67;;;;;4.49;82.85;103234.22;5076284;28;45231;-89
2022/01/18 05:13:20;;;;;;;;;23.67;21.33;;;;;4.90;82.89;103312.09;5076196;28;45243;-88
2022/01/18 05:15:53;;;;;;;;;25.00;21.00;;;;;4.67;83.08;103265.44;5075874;28;47931;-88
2022/01/18 05:21:16;;;;;;;;;34.67;21.33;;;;;4.49;82.66;103231.56;5077431;27;45392;-88
2022/01/18 05:23:41;;;;;;;;;21.67;19.67;;;;;4.56;82.39;103243.53;5076176;28;45259;-88
2022/01/18 05:26:07;;;;;;;;;23.00;21.33;;;;;4.44;82.46;103239.09;5075591;28;47402;-89
2022/01/18 05:28:32;;;;;;;;;31.33;20.00;;;;;4.67;82.87;103286.47;5075672;28;45369;-88
2022/01/18 05:30:58;;;;;;;;;23.00;20.33;;;;;4.58;82.59;103255.09;5076024;28;45354;-88
2022/01/18 05:33:23;;;;;;;;;28.33;19.33;;;;;4.55;82.49;103229.44;5076101;28;45451;-88
2022/01/18 05:35:50;;;;;;;;;19.00;18.67;;;;;4.95;82.38;103319.56;5075689;28;47930;-88
2022/01/18 05:38:15;;;;;;;;;16.33;14.33;;;;;4.55;82.42;103239.06;5075836;28;45330;-88
2022/01/18 05:40:40;;;;;;;;;20.67;18.67;;;;;4.99;81.97;103307.56;5092885;27;45246;-88
2022/01/18 05:43:06;;;;;;;;;23.67;16.67;;;;;4.92;82.01;103274.59;5075595;28;45819;-88
2022/01/18 05:45:31;;;;;;;;;28.67;19.00;;;;;5.09;81.28;103298.72;5092777;27;47148;-88
2022/01/18 05:47:57;;;;;;;;;28.33;19.00;;;;;4.41;81.44;103183.59;5075661;28;45275;-88
2022/01/18 05:50:22;;;;;;;;;25.33;17.33;;;;;4.75;81.41;103236.38;5075909;28;45276;-88
2022/01/18 05:52:48;;;;;;;;;25.00;20.67;;;;;5.15;80.99;103300.16;5076430;28;45421;-88
2022/01/18 05:55:14;;;;;;;;;25.00;19.67;;;;;4.54;81.40;103216.19;5096094;27;46813;-84
2022/01/18 05:57:39;;;;;;;;;21.33;17.00;;;;;4.60;81.78;103217.63;5094600;27;45484;-84
2022/01/18 06:00:10;;;;;;;;;23.33;18.67;;;;;5.15;81.33;103308.06;5078246;28;45394;-85
2022/01/18 06:07:45;;;;;;;;;22.67;18.33;;;;;4.72;81.49;103244.00;5079244;28;45385;-85
2022/01/18 06:10:10;;;;;;;;;23.67;21.33;;;;;5.08;81.44;103299.53;5077914;28;45416;-85
2022/01/18 06:12:36;;;;;;;;;32.67;20.33;;;;;4.80;81.41;103263.06;5094959;27;45484;-84
2022/01/18 06:15:02;;;;;;;;;22.67;18.00;;;;;4.87;81.24;103264.50;5078764;27;45439;-85
2022/01/18 06:17:28;;;;;;;;;31.00;24.33;;;;;4.39;80.92;103190.47;5078014;28;45883;-85
2022/01/18 06:19:53;;;;;;;;;26.00;20.00;;;;;4.93;81.37;103314.97;5094653;27;45420;-85
2022/01/18 06:22:19;;;;;;;;;26.67;22.00;;;;;4.74;81.55;103291.44;5079233;27;45448;-84
2022/01/18 06:24:45;;;;;;;;;26.00;20.00;;;;;4.61;81.21;103271.09;5079110;28;45746;-85
2022/01/18 06:27:10;;;;;;;;;28.67;21.67;;;;;4.60;81.95;103291.22;5077140;28;45508;-85
2022/01/18 06:29:37;;;;;;;;;18.67;17.67;;;;;4.53;81.85;103272.16;5077722;28;45399;-85
2022/01/18 06:32:04;;;;;;;;;17.33;17.33;;;;;4.46;81.71;103254.97;5094613;27;45328;-84
2022/01/18 06:34:29;;;;;;;;;28.67;23.33;;;;;4.58;81.84;103284.00;5077374;28;47651;-85
2022/01/18 06:36:55;;;;;;;;;24.67;23.67;;;;;4.40;82.07;103260.66;5077186;28;45286;-85
2022/01/18 06:39:20;;;;;;;;;19.33;18.00;;;;;4.51;82.06;103274.66;5078936;27;45228;-85
2022/01/18 06:41:46;;;;;;;;;20.33;19.00;;;;;4.64;81.81;103292.41;5077640;28;45526;-85
2022/01/18 06:44:12;;;;;;;;;28.67;23.00;;;;;4.26;81.95;103237.50;5076975;28;47293;-84
2022/01/18 06:46:37;;;;;;;;;27.00;21.33;;;;;4.17;81.95;103214.00;5078567;27;45177;-86
2022/01/18 06:49:02;;;;;;;;;24.00;18.33;;;;;4.51;82.06;103264.16;5078505;27;45184;-85
2022/01/18 06:51:28;;;;;;;;;16.67;14.00;;;;;4.64;82.11;103287.13;5094199;27;45479;-85
2022/01/18 06:53:53;;;;;;;;;24.67;22.00;;;;;4.01;82.22;103166.19;5078537;27;45517;-85
2022/01/18 06:56:20;;;;;;;;;26.33;22.00;;;;;4.50;81.94;103232.47;5077029;28;45310;-85
2022/01/18 06:58:46;;;;;;;;;22.33;18.33;;;;;4.41;81.52;103220.41;5093972;27;45449;-85
2022/01/18 07:01:13;;;;;;;;;33.67;23.33;;;;;4.67;81.57;103254.91;5072532;28;45545;-85
2022/01/18 07:03:40;;;;;;;;;29.67;23.00;;;;;4.53;81.53;103241.56;5057682;28;45377;-85
2022/01/18 07:06:06;;;;;;;;;26.67;22.33;;;;;4.56;81.38;103241.81;5057503;28;46090;-83
2022/01/18 07:08:31;;;;;;;;;21.33;18.67;;;;;4.35;81.25;103201.50;5058141;28;45227;-85
2022/01/18 07:10:57;;;;;;;;;27.33;24.33;;;;;4.93;81.76;103296.56;5057868;28;45295;-83
2022/01/18 07:13:24;;;;;;;;;29.67;23.00;;;;;4.61;81.38;103229.97;5052604;28;47491;-90
2022/01/18 07:15:49;;;;;;;;;24.33;19.33;;;;;4.92;81.48;103300.91;5071262;28;45580;-90
2022/01/18 07:18:15;;;;;;;;;27.33;26.33;;;;;5.12;80.92;103326.22;5074801;28;45461;-91
2022/01/18 07:20:41;;;;;;;;;26.33;18.00;;;;;4.42;81.17;103189.81;5077551;28;45521;-88
2022/01/18 07:23:12;;;;;;;;;31.67;24.00;;;;;4.25;80.44;103143.72;5077113;27;47003;-90
2022/01/18 07:25:43;;;;;;;;;29.00;23.00;;;;;4.51;80.69;103185.28;5075176;27;45481;-90
2022/01/18 07:28:09;;;;;;;;;33.33;22.33;;;;;4.93;80.58;103262.34;5073315;28;45364;-90
2022/01/18 07:30:36;;;;;;;;;31.67;24.00;;;;;4.65;80.28;103210.09;5073645;28;45572;-89
2022/01/18 07:33:01;;;;;;;;;29.67;25.00;;;;;4.71;80.46;103226.41;5071931;28;48165;-90
2022/01/18 07:35:27;;;;;;;;;26.67;20.67;;;;;5.03;80.54;103280.72;5074861;27;45467;-93
2022/01/18 07:37:53;;;;;;;;;31.67;25.33;;;;;4.53;79.95;103194.25;5071731;28;45440;-89
2022/01/18 07:40:18;;;;;;;;;30.67;24.33;;;;;5.32;80.49;103319.06;5069761;27;46518;-90
2022/01/18 07:42:44;;;;;;;;;32.33;23.33;;;;;4.91;80.59;103254.34;5074070;28;46272;-91
2022/01/18 07:45:09;;;;;;;;;39.33;23.00;;;;;4.63;80.23;103182.78;5074449;28;45619;-90
2022/01/18 07:47:35;;;;;;;;;28.67;24.00;;;;;4.05;80.03;103069.41;5077794;28;45414;-92
2022/01/18 07:50:00;;;;;;;;;35.00;27.33;;;;;4.82;80.09;103211.47;5070782;28;45508;-93
2022/01/18 07:52:26;;;;;;;;;28.33;25.67;;;;;5.08;80.15;103250.47;5078820;28;47512;-89
2022/01/18 07:54:52;;;;;;;;;30.33;25.33;;;;;4.85;80.10;103208.19;5072124;28;45379;-90
2022/01/18 07:57:19;;;;;;;;;31.00;28.00;;;;;4.84;80.02;103191.50;5069880;27;45288;-91
2022/01/18 07:59:44;;;;;;;;;27.00;22.00;;;;;5.56;80.27;103311.31;5075496;28;45666;-92
2022/01/18 08:02:10;;;;;;;;;30.00;25.67;;;;;5.25;80.32;103251.81;5073350;28;47825;-89
2022/01/18 08:04:35;;;;;;;;;25.00;19.67;;;;;5.52;80.10;103290.78;5070802;28;45453;-92
2022/01/18 08:07:01;;;;;;;;;30.67;24.00;;;;;5.00;80.04;103219.97;5077094;28;45450;-90
2022/01/18 08:09:26;;;;;;;;;32.67;27.67;;;;;4.75;80.21;103182.84;5076586;27;45567;-91
2022/01/18 08:11:52;;;;;;;;;21.33;16.00;;;;;4.87;80.34;103173.34;5078502;27;47010;-90
2022/01/18 08:14:18;;;;;;;;;27.00;23.33;;;;;5.64;80.05;103299.69;5077472;27;45559;-91
2022/01/18 08:17:00;;;;;;;;;33.33;27.00;;;;;4.93;79.95;103180.81;5070468;28;45441;-92
2022/01/18 08:19:29;;;;;;;;;28.33;26.67;;;;;4.54;80.07;103104.03;5073006;27;45319;-93
2022/01/18 08:21:55;;;;;;;;;30.67;22.67;;;;;4.59;80.20;103136.00;5075178;28;47291;-93
2022/01/18 08:24:21;;;;;;;;;31.67;26.67;;;;;5.22;80.17;103214.72;5074828;28;45800;-93
2022/01/18 08:26:46;;;;;;;;;25.67;24.67;;;;;4.10;80.31;103018.16;5072734;28;45507;-92
2022/01/18 08:29:14;;;;;;;;;29.67;25.33;;;;;4.75;80.60;103111.84;5096739;27;45530;-91
2022/01/18 08:31:41;;;;;;;;;28.33;26.33;;;;;5.78;80.74;103299.06;5088280;27;47555;-93
2022/01/18 08:34:06;;;;;;;;;32.00;24.67;;;;;4.96;80.76;103165.25;5076192;28;45390;-91
2022/01/18 08:36:32;;;;;;;;;32.00;26.00;;;;;5.88;80.31;103303.34;5079179;28;45440;-92
2022/01/18 08:38:57;;;;;;;;;30.33;26.00;;;;;5.06;80.18;103159.03;5080780;28;45513;-92
2022/01/18 08:41:23;;;;;;;;;29.67;24.33;;;;;5.33;80.37;103203.34;5080624;27;47189;-92
2022/01/18 08:43:49;;;;;;;;;34.00;29.67;;;;;5.21;80.21;103164.63;5075802;27;45410;-91
2022/01/18 08:46:16;;;;;;;;;26.67;24.33;;;;;5.54;80.40;103226.00;5075938;28;45576;-92
2022/01/18 08:48:42;;;;;;;;;29.67;26.00;;;;;5.38;79.61;103201.06;5070425;28;45576;-91
2022/01/18 08:51:08;;;;;;;;;33.67;30.33;;;;;5.63;80.03;103232.00;5068930;28;46950;-92
2022/01/18 08:53:35;;;;;;;;;37.67;30.00;;;;;5.67;80.29;103240.25;5066886;28;45763;-88
2022/01/18 08:56:01;;;;;;;;;35.00;30.00;;;;;5.77;80.13;103248.91;5071575;28;45390;-86
2022/01/18 08:58:27;;;;;;;;;31.33;26.33;;;;;5.92;80.42;103267.59;5058699;27;45482;-87
2022/01/18 09:00:52;;;;;;;;;33.33;28.33;;;;;5.18;79.75;103119.63;5078195;27;46890;-87
2022/01/18 09:03:19;;;;;;;;;39.00;32.00;;;;;6.27;79.81;103301.09;5085007;27;45558;-86
2022/01/18 09:05:46;;;;;;;;;31.33;25.00;;;;;6.16;79.80;103259.03;5068278;28;45530;-86
2022/01/18 09:08:13;;;;;;;;;35.00;24.33;;;;;6.30;79.89;103288.16;5074592;27;45600;-85
2022/01/18 09:10:41;;;;;;;;;33.00;26.33;;;;;5.75;79.74;103195.16;5060553;28;45520;-87
2022/01/18 09:13:07;;;;;;;;;34.67;30.00;;;;;5.68;80.03;103196.38;5074812;27;45397;-86
2022/01/18 09:15:33;;;;;;;;;37.33;30.33;;;;;5.49;79.93;103144.91;5064867;28;46524;-84
2022/01/18 09:17:58;;;;;;;;;35.00;29.67;;;;;6.00;80.45;103219.09;5061404;28;45433;-84
2022/01/18 09:20:24;;;;;;;;;30.00;30.00;;;;;5.84;79.85;103190.63;5069906;28;48220;-86
2022/01/18 09:22:52;;;;;;;;;34.00;30.33;;;;;6.08;80.02;103235.50;5062250;28;46486;-85
2022/01/18 09:25:25;;;;;;;;;32.00;25.33;;;;;6.09;80.13;103219.81;5077076;27;45408;-85
2022/01/18 09:27:50;;;;;;;;;34.67;28.33;;;;;5.82;80.71;103172.06;5063334;27;45762;-86
2022/01/18 09:30:16;;;;;;;;;27.67;25.00;;;;;5.56;80.50;103121.72;5077145;28;48413;-90
2022/01/18 09:32:43;;;;;;;;;34.00;30.00;;;;;6.50;80.93;103287.97;5072511;28;45755;-86
2022/01/18 09:35:14;;;;;;;;;35.33;31.67;;;;;5.61;81.12;103150.25;5069791;27;45535;-87
2022/01/18 09:37:40;;;;;;;;;43.67;32.33;;;;;6.20;81.08;103230.25;5069320;27;45426;-86
2022/01/18 09:40:07;;;;;;;;;34.00;29.00;;;;;5.59;81.17;103136.03;5068974;27;45710;-86
2022/01/18 09:42:35;;;;;;;;;32.00;26.67;;;;;6.05;81.24;103214.16;5072689;28;45550;-87
2022/01/18 09:45:06;;;;;;;;;35.33;29.33;;;;;6.21;81.90;103218.91;5065865;27;45411;-88
2022/01/18 09:47:31;;;;;;;;;33.67;30.00;;;;;6.13;81.25;103198.16;5074866;28;45345;-89
2022/01/18 09:50:00;;;;;;;;;33.33;26.67;;;;;6.57;81.16;103263.00;5059257;28;47918;-89
2022/01/18 09:52:25;;;;;;;;;35.67;30.00;;;;;6.63;81.38;103254.63;5064028;28;45341;-89
2022/01/18 09:54:51;;;;;;;;;41.33;31.67;;;;;6.34;81.17;103201.53;5066204;28;45444;-89
2022/01/18 09:57:17;;;;;;;;;33.67;30.00;;;;;6.70;81.69;103251.63;5073725;27;45307;-89
2022/01/18 09:59:42;;;;;;;;;32.33;27.67;;;;;6.38;81.95;103199.09;5068706;28;48025;-89
2022/01/18 10:02:10;;;;;;;;;33.00;27.00;;;;;6.66;82.28;103231.09;5065251;28;45619;-87
2022/01/18 10:04:44;;;;;;;;;40.67;30.33;;;;;7.03;81.77;103282.28;5060747;27;45667;-87
2022/01/18 10:07:10;;;;;;;;;36.67;26.33;;;;;6.73;81.63;103222.84;5067093;27;45598;-88
2022/01/18 10:09:37;;;;;;;;;31.00;25.00;;;;;7.06;82.12;103271.03;5066588;27;45492;-86
2022/01/18 10:12:05;;;;;;;;;29.33;24.00;;;;;7.03;81.61;103253.22;5068012;27;45498;-86
2022/01/18 10:14:32;;;;;;;;;28.33;24.67;;;;;7.26;81.71;103275.13;5070433;27;45390;-88
2022/01/18 10:16:58;;;;;;;;;24.00;21.33;;;;;6.85;82.29;103194.72;5065057;27;45507;-86
2022/01/18 10:19:41;;;;;;;;;37.33;25.00;;;;;7.29;81.54;103251.56;5073581;27;45461;-84
2022/01/18 10:22:13;;;;;;;;;23.67;20.67;;;;;7.37;81.89;103257.44;5060603;28;45711;-85
2022/01/18 10:24:39;;;;;;;;;31.33;25.33;;;;;6.95;81.17;103179.59;5071526;28;45661;-84
2022/01/18 10:27:05;;;;;;;;;28.00;23.00;;;;;7.31;81.31;103242.06;5070999;28;45416;-84
2022/01/18 10:29:35;;;;;;;;;25.67;22.33;;;;;7.22;81.36;103207.97;5069414;27;45440;-84
2022/01/18 10:32:14;;;;;;;;;32.33;28.33;;;;;7.55;81.00;103261.38;5063245;28;45635;-84
2022/01/18 10:35:04;;;;;;;;;30.67;24.33;;;;;7.54;81.21;103254.25;5070046;28;45258;-84
2022/01/18 10:37:30;;;;;;;;;22.33;20.33;;;;;7.65;80.76;103254.09;5065693;27;45169;-82
2022/01/18 10:40:07;;;;;;;;;31.67;25.67;;;;;7.62;80.89;103233.66;5069382;27;46368;-82
2022/01/18 10:42:49;;;;;;;;;28.67;23.33;;;;;7.64;80.89;103231.16;5067842;28;45366;-81
2022/01/18 10:45:33;;;;;;;;;15.33;13.33;;;;;7.72;80.42;103220.31;5073307;27;45484;-82
2022/01/18 10:48:04;;;;;;;;;29.67;23.00;;;;;7.80;80.33;103228.75;5064336;28;45489;-82
2022/01/18 10:50:34;;;;;;;;;31.00;24.00;;;;;7.66;80.10;103187.25;5074214;27;46640;-81
2022/01/18 10:53:10;;;;;;;;;27.33;20.67;;;;;7.90;80.35;103214.47;5075878;28;45471;-82
2022/01/18 10:55:35;;;;;;;;;22.00;19.00;;;;;7.52;80.24;103147.59;5070992;27;45497;-82
2022/01/18 10:58:09;;;;;;;;;30.00;25.00;;;;;7.80;80.43;103181.19;5062411;28;45481;-82
2022/01/18 11:00:35;;;;;;;;;31.00;24.00;;;;;7.92;79.86;103182.84;5073253;27;45542;-84
2022/01/18 11:03:04;;;;;;;;;27.67;22.67;;;;;7.93;79.83;103180.31;5075084;27;45445;-84
2022/01/18 11:05:32;;;;;;;;;28.33;19.33;;;;;7.96;79.49;103176.97;5067187;28;45261;-82
2022/01/18 11:08:03;;;;;;;;;23.00;17.00;;;;;8.07;79.61;103187.47;5063539;28;45312;-82
2022/01/18 11:10:39;;;;;;;;;24.00;18.00;;;;;8.18;79.20;103187.28;5066040;28;45537;-84
2022/01/18 11:13:20;;;;;;;;;25.33;21.33;;;;;8.21;78.73;103168.97;5071656;27;45295;-84
2022/01/18 11:15:47;;;;;;;;;21.67;18.33;;;;;8.27;79.08;103160.53;5072249;27;45318;-83
2022/01/18 11:18:25;;;;;;;;;23.00;18.00;;;;;8.07;78.60;103116.09;5080353;27;45504;-81
2022/01/18 11:20:50;;;;;;;;;21.00;17.33;;;;;8.33;77.86;103147.75;5074935;27;45425;-84
2022/01/18 11:23:17;;;;;;;;;20.33;17.00;;;;;7.46;77.65;102971.91;5068903;27;45579;-83
2022/01/18 11:25:43;;;;;;;;;19.33;17.33;;;;;8.35;77.42;103120.56;5061061;28;45983;-84
2022/01/18 11:28:13;;;;;;;;;19.00;16.00;;;;;7.92;76.54;103022.53;5067976;28;46498;-85
2022/01/18 11:30:42;;;;;;;;;14.33;12.33;;;;;7.88;76.54;103013.47;5071365;27;45562;-84
2022/01/18 11:33:12;;;;;;;;;18.00;14.33;;;;;8.28;76.38;103067.16;5068123;27;45284;-81
2022/01/18 11:35:44;;;;;;;;;14.33;10.67;;;;;8.73;76.00;103127.50;5070115;27;45499;-82
2022/01/18 11:39:08;;;;;;;;;19.00;13.67;;;;;8.68;75.27;103109.50;5072290;28;45587;-81
2022/01/18 11:41:35;;;;;;;;;14.00;10.67;;;;;8.55;75.29;103057.47;5055847;28;47030;-82
2022/01/18 11:44:31;;;;;;;;;14.67;13.00;;;;;8.73;74.80;103073.63;5052672;28;45731;-82
2022/01/18 11:46:57;;;;;;;;;16.67;14.33;;;;;8.58;73.82;103048.03;5037762;28;45542;-82
2022/01/18 11:49:27;;;;;;;;;9.67;9.67;;;;;8.78;73.92;103088.09;5051976;28;45499;-87
2022/01/18 11:52:03;;;;;;;;;8.67;8.67;;;;;9.10;73.84;103110.41;5056342;28;45996;-84
2022/01/18 11:57:02;;;;;;;;;12.67;12.67;;;;;8.54;73.45;102990.44;5053540;28;45374;-82
2022/01/18 11:59:36;;;;;;;;;11.67;8.00;;;;;9.02;72.33;103049.00;5040813;28;45482;-83
2022/01/18 12:02:05;;;;;;;;;13.00;9.00;;;;;8.91;72.20;103035.09;5025994;28;47499;-83
2022/01/18 12:04:48;;;;;;;;;11.67;9.67;;;;;9.40;71.79;103091.94;5025840;28;45833;-84
2022/01/18 12:07:37;;;;;;;;;15.00;12.00;;;;;9.40;72.12;103068.97;5024918;28;45451;-83
2022/01/18 12:10:30;;;;;;;;;15.00;10.00;;;;;9.52;71.65;103079.44;5027846;28;45533;-84
2022/01/18 12:13:01;;;;;;;;;11.67;9.00;;;;;9.45;71.19;103061.31;5047152;28;47067;-85
2022/01/18 12:15:26;;;;;;;;;13.00;10.00;;;;;9.03;71.21;102970.47;5058428;28;45510;-86
2022/01/18 12:17:58;;;;;;;;;14.33;12.33;;;;;9.67;71.12;103067.94;5065936;27;45477;-87
2022/01/18 12:20:32;;;;;;;;;13.00;12.67;;;;;9.73;70.90;103060.31;5073087;27;45683;-85
2022/01/18 12:23:06;;;;;;;;;14.33;12.67;;;;;9.79;70.74;103063.38;5056293;27;46352;-84
2022/01/18 12:25:35;;;;;;;;;14.33;10.00;;;;;9.59;71.13;103015.38;5055006;28;45898;-84
2022/01/18 12:34:28;;;;;;;;;15.67;11.33;;;;;9.79;71.46;103039.50;5044104;28;45504;-85
2022/01/18 12:37:06;;;;;;;;;17.00;14.67;;;;;9.78;71.11;103035.00;5026904;28;46056;-83
2022/01/18 12:39:53;;;;;;;;;20.00;16.67;;;;;9.79;70.92;103031.53;5043447;28;45935;-85
2022/01/18 12:45:20;;;;;;;;;16.00;15.00;;;;;9.72;70.82;103009.06;5041502;28;46568;-84
2022/01/18 12:47:49;;;;;;;;;17.00;14.00;;;;;9.79;71.13;103023.59;5032856;28;45525;-85